Time;durP1;ratioP1;P1;durP2;ratioP2;P2;SDS_P1;SDS_P2;PMS_P1;PMS_P2;Temp;Humidity;BMP_temperature;BMP_pressure;BME280_temperature;BME280_humidity;BME280_pressure;Samples;Min_cycle;Max_cycle;Signal;HPM_P1;HPM_P2
2021/12/23 00:02:12;;;;;;;21.15;14.27;;;1.70;78.50;;;;;;4993092;28;20473;-74
2021/12/23 00:04:50;;;;;;;20.98;14.43;;;1.70;78.60;;;;;;4987115;28;20035;-74
2021/12/23 00:07:16;;;;;;;22.15;14.50;;;1.70;78.60;;;;;;4987047;28;20038;-74
2021/12/23 00:12:19;;;;;;;22.25;14.90;;;1.70;78.50;;;;;;4969821;28;20039;-74
2021/12/23 00:14:46;;;;;;;25.63;16.02;;;1.70;78.50;;;;;;4976387;28;20532;-74
2021/12/23 00:23:22;;;;;;;22.90;14.47;;;1.70;78.60;;;;;;4944539;28;1266944;-73
2021/12/23 00:25:47;;;;;;;28.63;15.93;;;1.70;78.30;;;;;;4975022;28;20038;-74
2021/12/23 00:28:13;;;;;;;22.63;14.45;;;1.70;78.30;;;;;;4988969;28;20031;-74
2021/12/23 00:30:38;;;;;;;22.58;14.57;;;1.70;78.40;;;;;;4989037;28;20077;-74
2021/12/23 00:33:04;;;;;;;21.25;14.50;;;1.70;78.30;;;;;;4986702;28;20036;-73
2021/12/23 00:35:30;;;;;;;25.25;15.00;;;1.70;78.40;;;;;;4989017;28;20436;-73
2021/12/23 00:38:03;;;;;;;26.60;16.20;;;1.70;78.60;;;;;;4988374;28;20445;-73
2021/12/23 00:40:29;;;;;;;22.58;14.75;;;1.70;78.60;;;;;;4980451;28;20037;-73
2021/12/23 00:42:54;;;;;;;20.95;14.25;;;1.70;78.60;;;;;;4988432;28;20031;-73
2021/12/23 00:45:21;;;;;;;24.67;15.80;;;1.70;78.70;;;;;;4971488;28;20041;-73
2021/12/23 00:47:47;;;;;;;24.20;15.80;;;1.70;78.60;;;;;;4974803;28;20066;-73
2021/12/23 00:50:12;;;;;;;23.83;14.93;;;1.70;78.40;;;;;;4984642;28;20507;-73
2021/12/23 00:52:40;;;;;;;22.05;14.32;;;1.70;78.40;;;;;;4969751;28;20089;-73
2021/12/23 00:55:08;;;;;;;22.65;14.63;;;1.70;78.30;;;;;;4979107;28;20031;-77
2021/12/23 00:57:38;;;;;;;23.50;15.75;;;1.70;78.30;;;;;;4988137;28;20034;-75
2021/12/23 01:00:11;;;;;;;24.73;15.40;;;1.80;78.40;;;;;;4989724;28;20030;-75
2021/12/23 01:02:42;;;;;;;22.23;15.05;;;1.80;78.40;;;;;;4988793;28;20455;-75
2021/12/23 01:05:08;;;;;;;23.15;15.60;;;1.80;78.30;;;;;;4992482;28;20025;-75
2021/12/23 01:07:34;;;;;;;21.92;14.68;;;1.70;78.30;;;;;;4979130;28;20113;-74
2021/12/23 01:09:59;;;;;;;22.65;14.52;;;1.70;78.50;;;;;;4972151;28;20121;-75
2021/12/23 01:12:31;;;;;;;24.67;15.25;;;1.70;78.40;;;;;;4975707;28;20386;-75
2021/12/23 01:15:13;;;;;;;24.10;14.95;;;1.70;78.50;;;;;;4990151;28;20115;-75
2021/12/23 01:18:00;;;;;;;24.15;14.55;;;1.70;78.50;;;;;;4997023;28;20485;-76
2021/12/23 01:20:34;;;;;;;25.23;15.73;;;1.80;78.40;;;;;;4992549;28;20053;-75
2021/12/23 01:23:06;;;;;;;22.73;14.13;;;1.70;78.30;;;;;;4992191;28;20023;-75
2021/12/23 01:25:33;;;;;;;27.73;16.48;;;1.70;78.40;;;;;;4991951;28;20073;-75
2021/12/23 01:27:59;;;;;;;24.20;15.93;;;1.70;78.30;;;;;;4992431;28;20575;-75
2021/12/23 01:30:25;;;;;;;24.73;17.00;;;1.70;78.20;;;;;;4992036;28;20050;-75
2021/12/23 01:32:54;;;;;;;23.13;15.75;;;1.70;78.60;;;;;;4992353;28;20154;-75
2021/12/23 01:35:20;;;;;;;25.20;16.30;;;1.70;78.80;;;;;;4991821;28;20080;-75
2021/12/23 01:37:47;;;;;;;24.17;15.93;;;1.70;79.10;;;;;;4992273;28;20521;-75
2021/12/23 01:40:14;;;;;;;24.48;16.02;;;1.70;78.40;;;;;;5007280;28;20056;-75
2021/12/23 01:42:41;;;;;;;24.08;15.43;;;1.70;78.40;;;;;;4991727;28;20105;-75
2021/12/23 01:45:13;;;;;;;25.75;16.02;;;1.70;78.50;;;;;;4991641;28;20145;-75
2021/12/23 01:47:39;;;;;;;28.55;17.88;;;1.70;78.50;;;;;;4991479;28;20022;-75
2021/12/23 01:50:07;;;;;;;25.88;17.40;;;1.70;78.10;;;;;;4989453;28;20489;-75
2021/12/23 01:52:33;;;;;;;28.27;16.33;;;1.70;77.80;;;;;;4976025;28;20062;-75
2021/12/23 01:54:58;;;;;;;24.30;16.85;;;1.60;77.40;;;;;;4971816;28;20061;-75
2021/12/23 01:57:26;;;;;;;25.25;16.30;;;1.70;77.50;;;;;;4987959;28;20026;-76
2021/12/23 01:59:52;;;;;;;21.63;15.15;;;1.70;77.70;;;;;;4971125;28;20043;-74
2021/12/23 02:02:18;;;;;;;22.85;16.10;;;1.70;77.80;;;;;;4980131;28;20026;-73
2021/12/23 02:04:43;;;;;;;26.70;16.10;;;1.70;78.00;;;;;;4972100;28;20478;-74
2021/12/23 02:07:09;;;;;;;22.88;15.50;;;1.70;77.90;;;;;;4982766;28;20081;-74
2021/12/23 02:09:35;;;;;;;24.60;15.77;;;1.70;77.90;;;;;;4971237;28;20033;-74
2021/12/23 02:12:06;;;;;;;25.92;16.98;;;1.80;78.00;;;;;;4979043;28;20054;-75
2021/12/23 02:14:32;;;;;;;25.02;15.80;;;1.80;78.20;;;;;;4990670;28;20415;-75
2021/12/23 02:16:58;;;;;;;24.95;16.45;;;1.80;78.10;;;;;;4973649;28;20069;-76
2021/12/23 02:19:23;;;;;;;26.73;16.98;;;1.80;77.90;;;;;;4991281;28;20038;-75
2021/12/23 02:21:49;;;;;;;27.42;16.85;;;1.70;78.10;;;;;;4973611;28;20089;-75
2021/12/23 02:24:17;;;;;;;22.65;15.25;;;1.70;78.10;;;;;;4983038;28;20037;-76
2021/12/23 02:26:42;;;;;;;26.27;16.90;;;1.70;78.10;;;;;;4971100;28;20035;-76
2021/12/23 02:29:09;;;;;;;26.67;16.38;;;1.70;78.00;;;;;;4970267;28;20037;-76
2021/12/23 02:31:36;;;;;;;28.10;17.40;;;1.70;77.80;;;;;;4971735;28;20482;-76
2021/12/23 02:34:02;;;;;;;24.98;15.85;;;1.70;77.90;;;;;;4970803;28;20481;-76
2021/12/23 02:36:30;;;;;;;26.60;16.30;;;1.70;78.10;;;;;;4971253;28;20059;-76
2021/12/23 02:39:00;;;;;;;25.13;16.33;;;1.70;78.00;;;;;;4971214;28;20158;-76
2021/12/23 02:41:25;;;;;;;25.73;16.33;;;1.60;78.00;;;;;;4971323;28;20035;-74
2021/12/23 02:43:51;;;;;;;25.88;15.98;;;1.60;78.10;;;;;;4971571;28;20445;-74
2021/12/23 02:46:19;;;;;;;22.77;14.70;;;1.60;78.20;;;;;;4970490;28;20465;-74
2021/12/23 02:48:45;;;;;;;26.98;16.83;;;1.60;78.20;;;;;;4970251;28;20027;-74
2021/12/23 02:51:14;;;;;;;25.13;15.80;;;1.60;78.30;;;;;;4971107;28;20061;-74
2021/12/23 02:53:40;;;;;;;27.02;16.77;;;1.60;78.20;;;;;;4989543;28;20031;-74
2021/12/23 02:56:09;;;;;;;24.65;16.27;;;1.60;78.30;;;;;;4988901;28;20030;-74
2021/12/23 02:58:35;;;;;;;25.48;16.13;;;1.60;78.30;;;;;;4990708;28;20109;-77
2021/12/23 03:01:05;;;;;;;24.65;15.85;;;1.60;78.00;;;;;;4990575;28;20109;-77
2021/12/23 03:03:31;;;;;;;23.10;15.45;;;1.60;78.00;;;;;;4988966;28;20034;-77
2021/12/23 03:05:58;;;;;;;23.90;15.38;;;1.60;78.00;;;;;;4989900;28;20061;-77
2021/12/23 03:08:38;;;;;;;27.48;15.73;;;1.60;77.90;;;;;;4980230;28;20031;-76
2021/12/23 03:11:09;;;;;;;27.40;16.85;;;1.50;78.00;;;;;;4981892;28;20046;-76
2021/12/23 03:13:36;;;;;;;23.80;15.73;;;1.60;77.90;;;;;;4980209;28;20500;-76
2021/12/23 03:16:03;;;;;;;26.92;16.30;;;1.50;77.80;;;;;;4989381;28;20087;-76
2021/12/23 03:18:28;;;;;;;30.05;18.05;;;1.50;77.90;;;;;;4981648;28;20509;-76
2021/12/23 03:20:55;;;;;;;27.38;16.45;;;1.50;78.00;;;;;;4988355;28;20046;-76
2021/12/23 03:23:21;;;;;;;23.30;15.60;;;1.50;78.10;;;;;;4977164;28;20043;-76
2021/12/23 03:25:47;;;;;;;26.67;15.90;;;1.50;78.00;;;;;;4987954;28;20421;-76
2021/12/23 03:28:13;;;;;;;25.35;16.05;;;1.50;78.10;;;;;;4983132;28;20039;-75
2021/12/23 03:30:39;;;;;;;26.48;16.60;;;1.50;78.20;;;;;;4970245;28;20137;-76
2021/12/23 03:33:04;;;;;;;28.65;17.20;;;1.50;78.30;;;;;;4970989;28;20028;-75
2021/12/23 03:35:30;;;;;;;26.50;16.90;;;1.50;78.10;;;;;;4969324;28;20039;-76
2021/12/23 03:37:56;;;;;;;24.52;15.13;;;1.50;78.00;;;;;;4970845;28;20449;-77
2021/12/23 03:40:22;;;;;;;23.13;15.63;;;1.50;78.10;;;;;;4976376;28;20110;-76
2021/12/23 03:42:48;;;;;;;27.20;16.77;;;1.50;78.70;;;;;;4987234;28;20365;-76
2021/12/23 03:45:14;;;;;;;24.30;15.43;;;1.50;78.10;;;;;;4989242;28;20030;-76
2021/12/23 03:47:40;;;;;;;25.80;17.13;;;1.50;78.00;;;;;;4988584;28;20093;-76
2021/12/23 03:50:07;;;;;;;28.63;17.02;;;1.40;77.90;;;;;;4989943;28;20062;-76
2021/12/23 03:52:33;;;;;;;27.88;17.13;;;1.40;77.90;;;;;;4979774;28;20033;-76
2021/12/23 03:55:00;;;;;;;27.67;17.02;;;1.40;78.00;;;;;;4970252;28;20082;-76
2021/12/23 03:57:25;;;;;;;25.35;16.63;;;1.40;77.90;;;;;;4956265;28;20298;-76
2021/12/23 03:59:51;;;;;;;26.52;17.42;;;1.30;77.90;;;;;;4977649;28;20379;-76
2021/12/23 04:02:17;;;;;;;29.13;17.23;;;1.30;78.10;;;;;;4974306;28;20397;-75
2021/12/23 04:04:43;;;;;;;26.80;16.98;;;1.30;78.10;;;;;;4988013;28;20065;-76
2021/12/23 04:07:10;;;;;;;26.45;17.63;;;1.30;78.10;;;;;;4978562;28;20026;-76
2021/12/23 04:09:35;;;;;;;26.50;16.95;;;1.30;78.20;;;;;;4989737;28;20038;-77
2021/12/23 04:12:02;;;;;;;27.80;16.67;;;1.30;78.10;;;;;;4977835;28;20039;-76
2021/12/23 04:14:27;;;;;;;26.48;16.77;;;1.40;78.20;;;;;;4968957;28;20487;-76
2021/12/23 04:16:53;;;;;;;29.45;17.75;;;1.40;78.20;;;;;;4970743;28;20082;-76
2021/12/23 04:19:19;;;;;;;27.92;16.70;;;1.40;78.20;;;;;;4988064;28;20129;-76
2021/12/23 04:21:45;;;;;;;26.92;17.08;;;1.30;78.10;;;;;;4972537;28;20058;-76
2021/12/23 04:24:11;;;;;;;29.02;16.90;;;1.40;78.30;;;;;;4974522;28;20108;-76
2021/12/23 04:26:49;;;;;;;29.02;17.13;;;1.40;78.30;;;;;;4988014;28;20030;-75
2021/12/23 04:29:15;;;;;;;27.48;17.75;;;1.40;78.40;;;;;;4989545;28;20451;-76
2021/12/23 04:31:40;;;;;;;30.35;18.13;;;1.40;78.30;;;;;;4988933;28;20066;-77
2021/12/23 04:34:06;;;;;;;26.80;17.63;;;1.40;78.10;;;;;;4978905;28;20404;-77
2021/12/23 04:36:31;;;;;;;24.27;15.90;;;1.40;77.90;;;;;;4958162;28;20402;-76
2021/12/23 04:39:00;;;;;;;27.13;17.58;;;1.40;78.10;;;;;;4991548;28;20438;-76
2021/12/23 04:41:27;;;;;;;27.30;17.35;;;1.40;78.20;;;;;;4993250;28;20595;-76
2021/12/23 04:43:54;;;;;;;29.58;17.23;;;1.40;78.10;;;;;;4991394;28;20194;-74
2021/12/23 04:46:19;;;;;;;29.92;17.25;;;1.40;78.20;;;;;;4988953;28;20034;-75
2021/12/23 04:48:45;;;;;;;29.92;18.65;;;1.40;78.10;;;;;;4992884;28;20022;-75
2021/12/23 04:51:12;;;;;;;28.80;17.20;;;1.40;78.10;;;;;;4985302;28;20038;-76
2021/12/23 04:53:38;;;;;;;27.40;17.75;;;1.40;77.90;;;;;;4989216;28;20121;-74
2021/12/23 04:56:04;;;;;;;29.00;18.13;;;1.30;77.90;;;;;;4991178;28;20125;-74
2021/12/23 04:58:30;;;;;;;29.33;18.92;;;1.40;77.90;;;;;;4992023;28;20418;-74
2021/12/23 05:00:56;;;;;;;25.95;17.25;;;1.40;77.80;;;;;;5007466;28;20108;-75
2021/12/23 05:03:23;;;;;;;26.55;17.60;;;1.30;77.70;;;;;;4992548;28;20029;-76
2021/12/23 05:05:51;;;;;;;25.35;15.43;;;1.30;77.90;;;;;;4993069;28;20034;-76
2021/12/23 05:08:17;;;;;;;26.45;17.65;;;1.30;77.90;;;;;;5010356;28;20034;-76
2021/12/23 05:10:43;;;;;;;29.48;18.13;;;1.40;77.80;;;;;;4993805;28;20034;-75
2021/12/23 05:13:09;;;;;;;29.23;18.23;;;1.30;77.90;;;;;;5002003;28;20385;-75
2021/12/23 05:15:36;;;;;;;25.63;16.70;;;1.30;77.90;;;;;;4995833;28;20033;-75
2021/12/23 05:18:02;;;;;;;26.83;17.98;;;1.30;77.90;;;;;;5001554;28;20045;-74
2021/12/23 05:20:28;;;;;;;29.95;17.75;;;1.40;78.00;;;;;;5010937;28;20045;-74
2021/12/23 05:22:54;;;;;;;29.48;17.83;;;1.40;77.90;;;;;;4994014;28;20478;-76
2021/12/23 05:25:20;;;;;;;26.15;17.67;;;1.40;78.00;;;;;;4999510;28;20423;-76
2021/12/23 05:27:47;;;;;;;26.77;17.63;;;1.40;77.90;;;;;;4995283;28;20061;-76
2021/12/23 05:30:15;;;;;;;29.92;19.30;;;1.40;78.00;;;;;;4991250;28;20477;-76
2021/12/23 05:32:42;;;;;;;29.10;19.13;;;1.50;78.30;;;;;;4989203;28;20037;-76
2021/12/23 05:35:13;;;;;;;29.60;18.13;;;1.50;78.20;;;;;;4989261;28;20026;-75
2021/12/23 05:37:40;;;;;;;30.45;18.30;;;1.50;78.20;;;;;;4973797;28;20080;-74
2021/12/23 05:40:08;;;;;;;31.40;19.83;;;1.50;78.20;;;;;;4990154;28;20057;-76
2021/12/23 05:42:33;;;;;;;29.50;19.15;;;1.50;78.10;;;;;;4989547;28;20128;-76
2021/12/23 05:44:59;;;;;;;31.70;18.98;;;1.50;78.10;;;;;;4980556;28;20026;-76
2021/12/23 05:47:25;;;;;;;31.35;20.40;;;1.50;78.00;;;;;;4991001;28;20102;-76
2021/12/23 05:49:51;;;;;;;34.35;21.45;;;1.50;78.00;;;;;;4955703;28;20525;-76
2021/12/23 05:52:17;;;;;;;32.20;19.42;;;1.50;77.90;;;;;;4972248;28;20109;-76
2021/12/23 05:54:43;;;;;;;31.00;19.73;;;1.40;77.90;;;;;;4980755;28;20023;-74
2021/12/23 05:57:09;;;;;;;35.08;20.20;;;1.40;77.90;;;;;;4975166;28;20037;-74
2021/12/23 05:59:35;;;;;;;31.70;20.58;;;1.40;77.70;;;;;;4987223;28;20022;-75
2021/12/23 06:02:04;;;;;;;35.67;19.73;;;1.40;77.70;;;;;;4972730;28;20564;-74
2021/12/23 06:04:31;;;;;;;35.15;20.40;;;1.40;77.70;;;;;;4972682;28;20031;-75
2021/12/23 06:06:57;;;;;;;31.17;20.10;;;1.40;77.60;;;;;;4971147;28;20034;-76
2021/12/23 06:09:22;;;;;;;29.67;19.75;;;1.40;77.50;;;;;;4987152;28;20037;-76
2021/12/23 06:11:48;;;;;;;32.15;20.10;;;1.40;77.60;;;;;;4979585;28;20041;-76
2021/12/23 06:14:14;;;;;;;33.85;19.77;;;1.40;78.10;;;;;;4988237;28;20025;-76
2021/12/23 06:16:40;;;;;;;35.25;21.75;;;1.40;77.50;;;;;;4975238;28;20038;-76
2021/12/23 06:19:05;;;;;;;35.05;21.25;;;1.50;77.40;;;;;;4972375;28;20045;-76
2021/12/23 06:21:32;;;;;;;35.47;21.75;;;1.40;77.20;;;;;;4985809;28;20042;-76
2021/12/23 06:23:58;;;;;;;39.17;21.80;;;1.40;77.20;;;;;;4982062;28;20047;-74
2021/12/23 06:26:24;;;;;;;39.72;23.48;;;1.50;77.20;;;;;;4981523;28;20121;-75
2021/12/23 06:28:50;;;;;;;36.63;22.05;;;1.40;76.80;;;;;;4969933;28;20121;-75
2021/12/23 06:31:15;;;;;;;36.17;21.70;;;1.50;77.10;;;;;;4981744;28;20097;-74
2021/12/23 06:33:41;;;;;;;35.15;20.83;;;1.40;77.10;;;;;;4976741;28;20027;-74
2021/12/23 06:36:07;;;;;;;35.92;21.98;;;1.50;77.30;;;;;;4974284;28;20034;-74
2021/12/23 06:38:35;;;;;;;34.83;21.48;;;1.50;77.10;;;;;;4991356;28;20023;-74
2021/12/23 06:41:01;;;;;;;37.10;22.77;;;1.50;77.10;;;;;;4982645;28;20037;-74
2021/12/23 06:43:27;;;;;;;34.58;21.23;;;1.50;77.00;;;;;;4971298;28;20070;-74
2021/12/23 06:45:52;;;;;;;35.70;21.30;;;1.50;76.90;;;;;;4971707;28;20058;-74
2021/12/23 06:48:18;;;;;;;39.38;22.45;;;1.50;77.00;;;;;;4971550;28;20133;-74
2021/12/23 06:50:45;;;;;;;37.65;22.50;;;1.50;76.80;;;;;;4968895;28;20038;-74
2021/12/23 06:53:13;;;;;;;35.80;21.17;;;1.50;76.80;;;;;;4989584;28;20077;-74
2021/12/23 06:55:40;;;;;;;34.05;20.13;;;1.50;76.80;;;;;;4977105;28;20035;-74
2021/12/23 06:58:06;;;;;;;35.78;21.88;;;1.50;76.80;;;;;;4979684;28;20031;-74
2021/12/23 07:00:32;;;;;;;41.45;22.75;;;1.50;76.80;;;;;;4973606;28;20137;-73
2021/12/23 07:02:58;;;;;;;39.35;22.15;;;1.50;76.70;;;;;;4984007;28;20026;-76
2021/12/23 07:05:24;;;;;;;33.65;19.63;;;1.40;76.70;;;;;;4986418;28;20030;-76
2021/12/23 07:07:58;;;;;;;35.17;21.35;;;1.50;76.90;;;;;;4978954;28;20034;-76
2021/12/23 07:10:27;;;;;;;38.15;22.25;;;1.40;77.00;;;;;;4978739;28;20030;-76
2021/12/23 07:12:53;;;;;;;40.65;22.40;;;1.40;76.90;;;;;;4983595;28;20042;-76
2021/12/23 07:15:19;;;;;;;38.50;22.10;;;1.40;76.80;;;;;;4988874;28;20456;-76
2021/12/23 07:17:45;;;;;;;34.58;20.02;;;1.40;77.00;;;;;;4988150;28;20122;-74
2021/12/23 07:20:11;;;;;;;37.90;20.85;;;1.50;77.20;;;;;;4983826;28;20410;-76
2021/12/23 07:22:37;;;;;;;39.50;23.63;;;1.50;77.00;;;;;;4987640;28;20424;-76
2021/12/23 07:25:04;;;;;;;41.33;22.60;;;1.50;76.70;;;;;;4977914;28;20086;-75
2021/12/23 07:27:30;;;;;;;36.72;21.55;;;1.50;76.60;;;;;;4988113;28;20397;-73
2021/12/23 07:29:56;;;;;;;38.70;23.15;;;1.50;76.70;;;;;;4991252;28;20145;-75
2021/12/23 07:32:21;;;;;;;36.90;21.65;;;1.50;76.60;;;;;;4974730;28;20039;-76
2021/12/23 07:34:47;;;;;;;39.90;22.38;;;1.50;76.70;;;;;;4980615;28;20071;-76
2021/12/23 07:37:13;;;;;;;41.35;22.95;;;1.50;76.70;;;;;;4984724;28;20394;-76
2021/12/23 07:39:39;;;;;;;35.85;21.02;;;1.50;77.40;;;;;;4983864;28;20039;-75
2021/12/23 07:42:07;;;;;;;37.58;20.92;;;1.50;76.90;;;;;;4971685;28;20133;-76
2021/12/23 07:44:33;;;;;;;35.38;20.40;;;1.50;77.10;;;;;;4974045;28;20027;-76
2021/12/23 07:47:01;;;;;;;37.33;20.90;;;1.60;77.10;;;;;;4980744;28;20038;-76
2021/12/23 07:49:27;;;;;;;38.65;21.17;;;1.60;77.00;;;;;;4970188;28;20038;-76
2021/12/23 07:51:54;;;;;;;39.05;22.15;;;1.60;77.00;;;;;;4969394;28;20054;-76
2021/12/23 07:54:19;;;;;;;36.30;20.67;;;1.50;77.10;;;;;;4989338;28;20113;-76
2021/12/23 07:56:45;;;;;;;38.95;21.10;;;1.60;77.20;;;;;;4988358;28;20126;-76
2021/12/23 07:59:11;;;;;;;38.78;21.77;;;1.60;77.30;;;;;;4972536;28;20030;-74
2021/12/23 08:01:36;;;;;;;39.92;22.15;;;1.60;77.50;;;;;;4988082;28;20433;-74
2021/12/23 08:04:02;;;;;;;41.28;23.17;;;1.70;77.50;;;;;;4988428;28;20031;-74
2021/12/23 08:06:28;;;;;;;40.95;23.20;;;1.70;77.20;;;;;;4989734;28;20029;-74
2021/12/23 08:08:54;;;;;;;39.10;21.42;;;1.70;77.20;;;;;;4971883;28;20400;-74
2021/12/23 08:11:20;;;;;;;37.67;21.50;;;1.60;77.10;;;;;;4988431;28;20498;-74
2021/12/23 08:13:46;;;;;;;43.95;22.42;;;1.70;77.40;;;;;;4993476;28;20029;-74
2021/12/23 08:16:11;;;;;;;36.58;20.88;;;1.70;77.40;;;;;;4991387;28;20482;-74
2021/12/23 08:18:37;;;;;;;38.60;22.75;;;1.70;77.30;;;;;;4993600;28;20041;-74
2021/12/23 08:21:03;;;;;;;41.28;24.27;;;1.70;77.30;;;;;;4992292;28;20042;-76
2021/12/23 08:23:29;;;;;;;41.40;22.98;;;1.70;77.40;;;;;;4976172;28;20041;-76
2021/12/23 08:26:02;;;;;;;42.58;23.52;;;1.70;77.40;;;;;;4991750;28;20021;-76
2021/12/23 08:28:28;;;;;;;39.83;22.27;;;1.70;77.60;;;;;;4993375;28;20037;-77
2021/12/23 08:30:53;;;;;;;38.38;23.00;;;1.70;77.60;;;;;;4991585;28;20031;-76
2021/12/23 08:33:19;;;;;;;36.72;22.27;;;1.70;77.80;;;;;;4993482;28;20042;-76
2021/12/23 08:35:45;;;;;;;37.47;22.05;;;1.70;77.60;;;;;;4992774;28;20034;-76
2021/12/23 08:38:11;;;;;;;40.83;21.80;;;1.80;77.70;;;;;;4982389;28;20438;-76
2021/12/23 08:40:37;;;;;;;35.05;20.45;;;1.80;77.60;;;;;;4983739;28;20026;-76
2021/12/23 08:43:03;;;;;;;39.83;21.35;;;1.80;77.80;;;;;;4964058;28;20035;-72
2021/12/23 08:45:30;;;;;;;32.60;19.42;;;1.80;77.80;;;;;;4972928;28;20097;-72
2021/12/23 08:47:56;;;;;;;36.90;21.13;;;1.80;77.90;;;;;;4976876;28;20085;-72
2021/12/23 08:50:27;;;;;;;39.28;22.55;;;1.80;77.60;;;;;;4961637;28;20035;-73
2021/12/23 08:52:53;;;;;;;39.97;22.45;;;1.80;77.30;;;;;;4983149;28;20034;-72
2021/12/23 08:55:19;;;;;;;36.70;21.08;;;1.80;77.20;;;;;;4980035;28;20034;-71
2021/12/23 08:57:45;;;;;;;41.33;23.25;;;1.80;77.40;;;;;;4975226;28;20499;-72
2021/12/23 09:00:15;;;;;;;37.72;21.58;;;1.80;77.10;;;;;;4964032;28;20034;-72
2021/12/23 09:02:42;;;;;;;38.70;22.27;;;1.80;77.30;;;;;;4978182;28;20114;-72
2021/12/23 09:05:09;;;;;;;37.67;22.15;;;1.80;77.40;;;;;;4972965;28;20027;-73
2021/12/23 09:07:35;;;;;;;36.38;21.70;;;1.80;77.40;;;;;;4981704;28;20031;-73
2021/12/23 09:10:01;;;;;;;40.25;22.95;;;1.90;77.70;;;;;;4983878;28;20030;-73
2021/12/23 09:12:27;;;;;;;38.92;23.38;;;1.90;77.80;;;;;;4981917;28;20073;-72
2021/12/23 09:14:54;;;;;;;40.75;23.15;;;1.90;77.90;;;;;;4982638;28;20129;-72
2021/12/23 09:17:20;;;;;;;41.38;22.08;;;1.90;77.80;;;;;;4984848;28;20034;-72
2021/12/23 09:19:46;;;;;;;42.47;23.23;;;1.90;78.40;;;;;;4983613;28;20034;-72
2021/12/23 09:22:11;;;;;;;36.92;21.80;;;1.90;77.90;;;;;;4982929;28;20097;-72
2021/12/23 09:24:41;;;;;;;39.63;22.77;;;2.00;77.90;;;;;;4988612;28;20044;-73
2021/12/23 09:27:28;;;;;;;38.58;21.88;;;1.90;77.50;;;;;;4991560;28;20461;-72
2021/12/23 09:32:52;;;;;;;37.28;21.33;;;2.00;77.70;;;;;;4986730;28;20041;-72
2021/12/23 09:35:20;;;;;;;39.97;22.25;;;2.00;78.00;;;;;;4991346;28;20045;-72
2021/12/23 09:37:46;;;;;;;38.88;22.88;;;2.00;77.90;;;;;;4988669;28;20069;-73
2021/12/23 09:40:12;;;;;;;38.15;22.70;;;2.00;78.10;;;;;;4995178;28;20078;-72
2021/12/23 09:42:41;;;;;;;37.80;21.35;;;2.10;78.10;;;;;;4969660;28;20470;-72
2021/12/23 09:45:11;;;;;;;38.42;22.75;;;2.10;78.10;;;;;;4985305;28;20022;-73
2021/12/23 09:47:41;;;;;;;39.25;22.58;;;2.10;78.10;;;;;;4988860;28;20023;-73
2021/12/23 09:50:11;;;;;;;37.65;21.98;;;2.10;78.20;;;;;;4989889;28;20053;-73
2021/12/23 09:52:42;;;;;;;39.17;21.95;;;2.10;78.20;;;;;;4992135;28;20084;-73
2021/12/23 09:55:11;;;;;;;40.63;24.23;;;2.20;78.10;;;;;;4996155;28;20046;-72
2021/12/23 09:57:37;;;;;;;37.70;23.88;;;2.20;78.00;;;;;;4990098;28;20494;-72
2021/12/23 10:00:07;;;;;;;40.83;22.45;;;2.20;78.10;;;;;;4989821;28;20088;-73
2021/12/23 10:02:32;;;;;;;37.00;21.60;;;2.20;78.10;;;;;;4988305;28;20501;-73
2021/12/23 10:04:58;;;;;;;38.63;22.77;;;2.30;78.10;;;;;;4989529;28;20031;-73
2021/12/23 10:07:24;;;;;;;43.88;24.17;;;2.30;78.20;;;;;;4988045;28;20042;-72
2021/12/23 10:31:35;;;;;;;38.42;23.42;;;2.50;78.20;;;;;;5001415;28;20464;-73
2021/12/23 10:37:21;;;;;;;46.97;25.73;;;2.50;78.40;;;;;;4990249;28;20088;-72
2021/12/23 10:39:48;;;;;;;42.63;24.35;;;2.60;78.20;;;;;;4991598;28;20030;-73
2021/12/23 10:42:33;;;;;;;41.90;23.25;;;2.60;78.40;;;;;;4987304;28;20037;-73
2021/12/23 10:45:06;;;;;;;39.25;23.02;;;2.60;78.10;;;;;;4997729;28;20041;-72
2021/12/23 10:47:43;;;;;;;39.50;23.83;;;2.60;78.30;;;;;;4985567;28;20040;-72
2021/12/23 10:50:22;;;;;;;37.47;22.20;;;2.70;78.40;;;;;;4988074;28;20034;-72
2021/12/23 10:53:05;;;;;;;41.40;23.67;;;2.70;78.40;;;;;;4989934;28;20072;-72
2021/12/23 10:58:17;;;;;;;41.38;22.40;;;2.70;77.90;;;;;;4994703;28;20056;-73
2021/12/23 11:00:50;;;;;;;39.20;22.30;;;2.70;78.10;;;;;;4988537;28;20420;-73
2021/12/23 11:06:17;;;;;;;42.80;24.77;;;2.80;78.40;;;;;;4985027;28;20169;-73
2021/12/23 11:42:00;;;;;;;40.47;22.97;;;3.00;78.60;;;;;;4995696;28;20118;-72
2021/12/23 11:44:30;;;;;;;44.50;24.27;;;3.00;78.70;;;;;;4993761;28;20312;-72
2021/12/23 11:46:59;;;;;;;42.25;23.40;;;3.00;78.60;;;;;;4986032;28;20089;-72
2021/12/23 11:49:24;;;;;;;40.78;23.08;;;3.00;78.60;;;;;;4986145;28;20032;-72
2021/12/23 11:54:45;;;;;;;40.75;23.40;;;3.10;78.60;;;;;;4986816;28;20069;-72
2021/12/23 11:57:11;;;;;;;40.05;23.88;;;3.10;78.60;;;;;;4985274;28;20100;-72
2021/12/23 11:59:40;;;;;;;42.78;23.88;;;3.10;78.70;;;;;;4988026;28;20092;-72
2021/12/23 12:02:16;;;;;;;45.28;25.92;;;3.20;78.90;;;;;;4992440;28;20030;-71
2021/12/23 12:04:43;;;;;;;41.28;23.00;;;3.20;79.00;;;;;;4989290;28;20544;-71
2021/12/23 12:07:20;;;;;;;41.65;23.33;;;3.30;79.00;;;;;;4994649;28;20470;-71
2021/12/23 12:10:07;;;;;;;43.20;23.45;;;3.30;78.80;;;;;;4987206;28;20521;-72
2021/12/23 12:12:35;;;;;;;39.20;21.90;;;3.40;78.80;;;;;;4985235;28;20405;-72
2021/12/23 12:15:04;;;;;;;39.30;23.30;;;3.60;78.80;;;;;;4986703;28;20553;-72
2021/12/23 12:17:36;;;;;;;47.88;24.52;;;3.70;78.60;;;;;;4989382;28;20042;-72
2021/12/23 12:20:09;;;;;;;41.65;22.17;;;3.80;78.20;;;;;;4986474;28;20035;-72
2021/12/23 12:23:02;;;;;;;37.83;22.42;;;3.90;78.00;;;;;;4985603;28;20057;-72
2021/12/23 12:25:31;;;;;;;40.88;22.73;;;4.00;77.70;;;;;;4983067;28;20617;-71
2021/12/23 12:27:56;;;;;;;39.38;21.98;;;4.00;77.70;;;;;;4986367;28;20026;-72
2021/12/23 12:31:00;;;;;;;38.10;22.35;;;3.90;77.70;;;;;;4988202;28;20037;-74
2021/12/23 12:33:26;;;;;;;44.50;25.02;;;3.90;78.30;;;;;;4988744;28;20089;-74
2021/12/23 12:36:00;;;;;;;40.75;22.13;;;3.90;77.80;;;;;;4990896;28;20402;-74
2021/12/23 12:38:29;;;;;;;42.03;23.55;;;3.80;77.90;;;;;;4986376;28;20030;-74
2021/12/23 12:41:17;;;;;;;40.63;21.83;;;3.80;78.10;;;;;;4985077;28;20034;-74
2021/12/23 12:46:34;;;;;;;38.60;22.27;;;3.80;78.20;;;;;;4989783;28;20057;-75
2021/12/23 12:49:10;;;;;;;40.45;23.05;;;3.80;78.30;;;;;;4984976;28;20034;-75
2021/12/23 12:51:39;;;;;;;39.58;22.38;;;3.90;78.10;;;;;;4987713;28;20026;-74
2021/12/23 12:54:08;;;;;;;43.25;23.02;;;3.90;78.00;;;;;;4992538;28;20030;-74
2021/12/23 12:56:46;;;;;;;39.15;23.67;;;4.00;77.90;;;;;;4985745;28;20106;-74
2021/12/23 12:59:12;;;;;;;41.40;22.95;;;4.00;77.70;;;;;;4994541;28;20026;-74
2021/12/23 13:01:42;;;;;;;42.25;23.83;;;4.10;77.70;;;;;;4989913;28;20045;-73
2021/12/23 13:04:23;;;;;;;37.92;22.92;;;4.10;77.70;;;;;;4992643;28;20054;-74
2021/12/23 13:06:50;;;;;;;41.00;24.40;;;4.10;77.80;;;;;;4990978;28;20033;-73
2021/12/23 13:09:22;;;;;;;43.08;24.73;;;4.20;77.30;;;;;;4987751;28;20035;-72
2021/12/23 13:11:49;;;;;;;41.33;23.42;;;4.10;77.50;;;;;;4992226;28;20517;-72
2021/12/23 13:14:21;;;;;;;147.75;112.82;;;4.10;77.60;;;;;;4989149;28;20042;-71
2021/12/23 13:16:55;;;;;;;68.32;46.80;;;4.20;77.90;;;;;;4990311;28;20482;-72
2021/12/23 13:19:29;;;;;;;46.30;26.63;;;4.20;78.20;;;;;;4984926;28;20032;-72
2021/12/23 13:21:56;;;;;;;46.25;28.40;;;4.20;78.00;;;;;;4991028;28;20058;-72
2021/12/23 13:24:24;;;;;;;44.33;24.13;;;4.20;78.10;;;;;;4991997;28;20097;-72
2021/12/23 13:26:52;;;;;;;48.47;28.40;;;4.20;78.00;;;;;;5001221;28;20450;-72
2021/12/23 13:29:18;;;;;;;46.20;24.25;;;4.20;78.20;;;;;;4992674;28;20024;-72
2021/12/23 13:31:45;;;;;;;45.72;25.33;;;4.20;78.20;;;;;;4989777;28;20452;-72
2021/12/23 13:34:24;;;;;;;42.70;23.20;;;4.20;78.30;;;;;;4988440;28;20053;-72
2021/12/23 13:36:55;;;;;;;42.58;23.10;;;4.20;78.30;;;;;;4973296;28;20037;-72
2021/12/23 13:39:31;;;;;;;38.38;22.77;;;4.10;78.40;;;;;;4987273;28;21267;-72
2021/12/23 13:41:59;;;;;;;37.58;21.92;;;4.20;78.70;;;;;;4989152;28;20478;-72
2021/12/23 13:44:27;;;;;;;39.20;22.48;;;4.10;78.70;;;;;;4985974;28;20126;-72
2021/12/23 13:47:03;;;;;;;41.92;22.30;;;4.10;78.70;;;;;;4976165;28;20113;-72
2021/12/23 13:49:32;;;;;;;68.80;40.92;;;4.20;78.90;;;;;;4981283;28;20086;-72
2021/12/23 13:51:58;;;;;;;64.25;40.65;;;4.20;78.90;;;;;;4988817;28;20496;-72
2021/12/23 13:54:23;;;;;;;48.20;26.38;;;4.20;78.90;;;;;;4983370;28;20034;-72
2021/12/23 13:56:50;;;;;;;39.40;23.35;;;4.20;79.00;;;;;;4971098;28;20034;-72
2021/12/23 13:59:22;;;;;;;40.53;22.45;;;4.20;79.10;;;;;;4990237;28;20034;-72
2021/12/23 14:02:02;;;;;;;38.63;22.83;;;4.30;79.10;;;;;;4990315;28;20425;-72